createdAt,value
2023-12-18T00:00:29.369Z,18.72
2023-12-18T00:02:56.907Z,18.64
2023-12-18T00:05:25.778Z,18.66
2023-12-18T00:07:53.325Z,18.58
2023-12-18T00:10:20.806Z,18.62
2023-12-18T00:12:48.377Z,18.60
2023-12-18T00:15:16.042Z,18.55
2023-12-18T00:17:43.822Z,18.49
2023-12-18T00:20:12.709Z,18.50
2023-12-18T00:22:41.569Z,18.45
2023-12-18T00:25:09.825Z,18.44
2023-12-18T00:27:37.461Z,18.45
2023-12-18T00:30:05.875Z,18.42
2023-12-18T00:32:33.522Z,18.41
2023-12-18T00:35:01.068Z,18.44
2023-12-18T00:37:28.587Z,18.51
2023-12-18T00:39:57.590Z,18.62
2023-12-18T00:42:25.267Z,18.62
2023-12-18T00:44:52.832Z,18.57
2023-12-18T00:47:20.353Z,18.60
2023-12-18T00:49:48.032Z,18.55
2023-12-18T00:52:16.130Z,18.49
2023-12-18T00:54:43.785Z,18.47
2023-12-18T00:57:12.685Z,18.41
2023-12-18T00:59:40.166Z,18.42
2023-12-18T01:02:07.673Z,18.45
2023-12-18T01:04:35.268Z,18.56
2023-12-18T01:07:02.852Z,18.64
2023-12-18T01:09:30.435Z,18.65
2023-12-18T01:11:58.006Z,18.60
2023-12-18T01:14:26.825Z,18.60
2023-12-18T01:16:55.613Z,18.60
2023-12-18T01:19:23.248Z,18.55
2023-12-18T01:21:50.997Z,18.48
2023-12-18T01:24:19.035Z,18.40
2023-12-18T01:26:46.643Z,18.34
2023-12-18T01:29:14.235Z,18.26
2023-12-18T01:31:43.104Z,18.19
2023-12-18T01:34:10.748Z,18.13
2023-12-18T01:36:38.427Z,18.08
2023-12-18T01:39:06.055Z,18.06
2023-12-18T01:41:33.603Z,18.08
2023-12-18T01:44:01.218Z,18.09
2023-12-18T01:46:28.759Z,18.12
2023-12-18T01:48:57.807Z,18.13
2023-12-18T01:51:25.423Z,18.11
2023-12-18T01:53:54.630Z,18.09
2023-12-18T01:56:23.381Z,18.03
2023-12-18T01:58:50.912Z,18.04
2023-12-18T02:01:18.512Z,18.03
2023-12-18T02:03:46.148Z,17.99
2023-12-18T02:06:16.614Z,18.03
2023-12-18T02:08:44.112Z,18.09
2023-12-18T02:11:11.630Z,18.07
2023-12-18T02:13:40.913Z,18.09
2023-12-18T02:16:07.556Z,18.07
2023-12-18T02:18:35.224Z,18.00
2023-12-18T02:21:03.100Z,18.05
2023-12-18T02:23:31.950Z,18.06
2023-12-18T02:25:59.469Z,18.03
2023-12-18T02:28:27.090Z,17.97
2023-12-18T02:30:54.730Z,17.92
2023-12-18T02:33:22.430Z,17.78
2023-12-18T02:35:50.100Z,17.83
2023-12-18T02:38:17.648Z,17.84
2023-12-18T02:40:46.578Z,17.87
2023-12-18T02:43:14.091Z,17.86
2023-12-18T02:45:41.648Z,17.93
2023-12-18T02:48:09.575Z,18.01
2023-12-18T02:50:37.208Z,18.02
2023-12-18T02:53:04.933Z,18.07
2023-12-18T02:55:32.436Z,18.10
2023-12-18T02:58:01.767Z,18.07
2023-12-18T03:00:29.311Z,18.08
2023-12-18T03:02:56.860Z,18.12
2023-12-18T03:05:24.394Z,18.17
2023-12-18T03:07:51.999Z,18.14
2023-12-18T03:10:19.504Z,18.16
2023-12-18T03:12:47.272Z,18.17
2023-12-18T03:15:16.394Z,18.21
2023-12-18T03:17:44.299Z,18.13
2023-12-18T03:20:12.803Z,18.14
2023-12-18T03:22:40.327Z,18.16
2023-12-18T03:25:08.505Z,18.18
2023-12-18T03:27:36.033Z,18.23
2023-12-18T03:30:03.912Z,18.25
2023-12-18T03:32:32.962Z,18.35
2023-12-18T03:35:00.365Z,18.23
2023-12-18T03:37:27.869Z,18.27
2023-12-18T03:39:55.394Z,18.23
2023-12-18T03:42:23.222Z,18.23
2023-12-18T03:44:50.782Z,18.22
2023-12-18T03:47:18.311Z,18.23
2023-12-18T03:49:47.201Z,18.21
2023-12-18T03:52:14.729Z,18.25
2023-12-18T03:54:42.399Z,18.28
2023-12-18T03:57:09.993Z,18.26
2023-12-18T03:59:37.547Z,18.24
2023-12-18T04:02:05.434Z,18.24
2023-12-18T04:04:32.982Z,18.23
2023-12-18T04:07:01.898Z,18.27
2023-12-18T04:09:29.436Z,18.24
2023-12-18T04:11:56.968Z,18.18
2023-12-18T04:14:24.463Z,18.16
2023-12-18T04:16:51.977Z,18.14
2023-12-18T04:19:19.583Z,18.14
2023-12-18T04:21:47.233Z,18.09
2023-12-18T04:24:17.735Z,18.09
2023-12-18T04:26:46.529Z,18.14
2023-12-18T04:29:14.082Z,18.20
2023-12-18T04:31:41.696Z,18.12
2023-12-18T04:34:09.465Z,18.13
2023-12-18T04:36:39.353Z,18.07
2023-12-18T04:39:06.977Z,18.03
2023-12-18T04:41:35.878Z,18.01
2023-12-18T04:44:03.427Z,18.14
2023-12-18T04:46:35.868Z,18.24
2023-12-18T04:51:31.276Z,18.17
2023-12-18T04:53:58.872Z,18.13
2023-12-18T04:56:26.372Z,18.10
2023-12-18T04:58:55.369Z,18.11
2023-12-18T05:01:22.710Z,18.09
2023-12-18T05:03:50.297Z,18.12
2023-12-18T05:06:21.663Z,18.14
2023-12-18T05:08:49.693Z,18.16
2023-12-18T05:11:18.277Z,18.26
2023-12-18T05:13:45.815Z,18.23
2023-12-18T05:16:14.735Z,18.16
2023-12-18T05:18:42.400Z,18.15
2023-12-18T05:21:10.029Z,18.12
2023-12-18T05:23:37.576Z,18.10
2023-12-18T05:26:05.413Z,18.14
2023-12-18T05:28:33.037Z,18.14
2023-12-18T05:31:00.744Z,18.18
2023-12-18T05:33:29.915Z,18.23
2023-12-18T05:35:57.556Z,18.21
2023-12-18T05:38:25.039Z,18.25
2023-12-18T05:40:52.558Z,18.33
2023-12-18T05:43:21.625Z,18.26
2023-12-18T05:45:49.177Z,18.26
2023-12-18T05:48:16.835Z,18.28
2023-12-18T05:50:45.783Z,18.26
2023-12-18T05:53:13.292Z,18.17
2023-12-18T05:55:40.925Z,18.10
2023-12-18T05:58:08.434Z,18.08
2023-12-18T06:00:37.162Z,18.09
2023-12-18T06:03:05.073Z,18.08
2023-12-18T06:05:32.743Z,18.09
2023-12-18T06:08:01.627Z,18.15
2023-12-18T06:10:29.174Z,18.26
2023-12-18T06:12:56.823Z,18.19
2023-12-18T06:17:51.963Z,18.21
2023-12-18T06:20:19.543Z,18.15
2023-12-18T06:22:47.052Z,18.19
2023-12-18T06:25:16.017Z,18.17
2023-12-18T06:27:44.466Z,18.14
2023-12-18T06:30:13.082Z,18.08
2023-12-18T06:32:40.887Z,18.07
2023-12-18T06:35:09.275Z,18.02
2023-12-18T06:37:36.774Z,18.00
2023-12-18T06:40:05.112Z,18.02
2023-12-18T06:42:33.978Z,17.99
2023-12-18T06:45:01.492Z,18.06
2023-12-18T06:47:30.143Z,18.04
2023-12-18T06:49:57.667Z,18.04
2023-12-18T06:52:25.973Z,18.08
2023-12-18T06:54:53.525Z,18.05
2023-12-18T06:57:21.374Z,18.01
2023-12-18T06:59:50.308Z,18.10
2023-12-18T07:02:17.824Z,18.11
2023-12-18T07:04:45.772Z,18.02
2023-12-18T07:07:13.284Z,18.03
2023-12-18T07:09:40.895Z,18.04
2023-12-18T07:12:09.488Z,18.12
2023-12-18T07:14:37.038Z,18.08
2023-12-18T07:17:06.224Z,18.04
2023-12-18T07:19:33.812Z,17.99
2023-12-18T07:22:01.411Z,17.99
2023-12-18T07:24:29.849Z,18.07
2023-12-18T07:26:57.376Z,18.06
2023-12-18T07:29:24.886Z,18.06
2023-12-18T07:31:52.429Z,18.00
2023-12-18T07:34:21.543Z,17.83
2023-12-18T07:36:49.158Z,17.84
2023-12-18T07:39:16.746Z,17.87
2023-12-18T07:41:44.361Z,17.88
2023-12-18T07:44:11.929Z,17.91
2023-12-18T07:46:39.435Z,17.92
2023-12-18T07:49:07.843Z,17.95
2023-12-18T07:51:39.019Z,17.93
2023-12-18T07:54:06.696Z,17.85
2023-12-18T07:56:34.188Z,17.85
2023-12-18T07:59:01.715Z,17.87
2023-12-18T08:01:29.600Z,17.92
2023-12-18T08:03:57.208Z,17.95
2023-12-18T08:06:24.817Z,17.94
2023-12-18T08:08:53.663Z,17.95
2023-12-18T08:11:21.153Z,17.93
2023-12-18T08:13:49.601Z,17.92
2023-12-18T08:16:17.198Z,17.85
2023-12-18T08:18:45.984Z,17.89
2023-12-18T08:21:14.697Z,17.86
2023-12-18T08:23:42.452Z,17.95
2023-12-18T08:26:12.846Z,17.98
2023-12-18T08:28:43.136Z,17.98
2023-12-18T08:31:10.803Z,18.02
2023-12-18T08:33:38.532Z,18.07
2023-12-18T08:36:06.698Z,18.06
2023-12-18T08:38:34.248Z,18.07
2023-12-18T08:41:01.770Z,18.14
2023-12-18T08:43:30.681Z,18.12
2023-12-18T08:45:58.242Z,18.17
2023-12-18T08:48:25.832Z,18.18
2023-12-18T08:50:53.427Z,18.18
2023-12-18T08:53:20.914Z,18.18
2023-12-18T08:55:48.408Z,18.18
2023-12-18T08:58:15.996Z,18.24
2023-12-18T09:00:44.924Z,18.24
2023-12-18T09:03:12.332Z,18.30
2023-12-18T09:05:41.871Z,18.25
2023-12-18T09:08:12.660Z,18.17
2023-12-18T09:10:40.746Z,18.20
2023-12-18T09:13:08.255Z,18.22
2023-12-18T09:15:35.829Z,18.25
2023-12-18T09:18:05.168Z,18.20
2023-12-18T09:20:32.640Z,18.23
2023-12-18T09:23:00.148Z,18.23
2023-12-18T09:25:27.685Z,18.26
2023-12-18T09:27:55.225Z,18.24
2023-12-18T09:30:22.778Z,18.27
2023-12-18T09:32:50.471Z,18.28
2023-12-18T09:35:19.531Z,18.27
2023-12-18T09:37:47.122Z,18.24
2023-12-18T09:40:14.609Z,18.25
2023-12-18T09:42:42.509Z,18.31
2023-12-18T09:45:10.780Z,18.29
2023-12-18T09:47:38.730Z,18.28
2023-12-18T09:50:07.839Z,18.34
2023-12-18T09:52:36.764Z,18.35
2023-12-18T09:55:05.928Z,18.33
2023-12-18T09:57:33.520Z,18.34
2023-12-18T10:00:01.043Z,18.35
2023-12-18T10:02:28.543Z,18.36
2023-12-18T10:04:56.038Z,18.38
2023-12-18T10:07:23.525Z,18.43
2023-12-18T10:09:52.431Z,18.41
2023-12-18T10:12:19.809Z,18.42
2023-12-18T10:14:47.300Z,18.48
2023-12-18T10:17:14.793Z,18.49
2023-12-18T10:19:43.785Z,18.45
2023-12-18T10:22:11.365Z,18.44
2023-12-18T10:24:42.059Z,18.43
2023-12-18T10:27:10.961Z,18.43
2023-12-18T10:29:38.326Z,18.46
2023-12-18T10:32:06.362Z,18.40
2023-12-18T10:34:37.779Z,18.43
2023-12-18T10:37:05.511Z,18.49
2023-12-18T10:39:33.950Z,18.45
2023-12-18T10:42:01.497Z,18.51
2023-12-18T10:44:30.703Z,18.45
2023-12-18T10:46:58.219Z,18.50
2023-12-18T10:49:25.784Z,18.53
2023-12-18T10:51:53.343Z,18.51
2023-12-18T10:54:20.847Z,18.43
2023-12-18T10:56:48.347Z,18.44
2023-12-18T10:59:16.572Z,18.46
2023-12-18T11:01:45.478Z,18.51
2023-12-18T11:04:14.038Z,18.48
2023-12-18T11:06:41.680Z,18.56
2023-12-18T11:09:09.514Z,18.53
2023-12-18T11:11:37.014Z,18.50
2023-12-18T11:14:13.612Z,18.51
2023-12-18T11:16:59.185Z,18.53
2023-12-18T11:19:36.954Z,18.48
2023-12-18T11:22:05.789Z,18.49
2023-12-18T11:24:36.870Z,18.48
2023-12-18T11:27:04.597Z,18.59
2023-12-18T11:29:42.660Z,18.55
2023-12-18T11:32:13.928Z,18.60
2023-12-18T11:34:42.419Z,18.63
2023-12-18T11:37:10.156Z,18.58
2023-12-18T11:39:41.573Z,18.54
2023-12-18T11:42:29.621Z,18.56
2023-12-18T11:44:57.774Z,18.59
2023-12-18T11:47:26.668Z,18.66
2023-12-18T11:49:54.148Z,18.62
2023-12-18T11:52:21.851Z,18.62
2023-12-18T11:54:49.662Z,18.70
2023-12-18T11:57:21.245Z,18.71
2023-12-18T11:59:48.810Z,18.75
2023-12-18T12:02:16.350Z,18.74
2023-12-18T12:04:45.284Z,18.71
2023-12-18T12:07:13.088Z,18.74
2023-12-18T12:09:42.145Z,18.80
2023-12-18T12:12:12.540Z,18.84
2023-12-18T12:14:40.045Z,18.83
2023-12-18T12:17:07.722Z,18.81
2023-12-18T12:19:35.577Z,18.77
2023-12-18T12:22:04.986Z,18.65
2023-12-18T12:24:34.586Z,18.74
2023-12-18T12:27:02.120Z,18.75
2023-12-18T12:29:29.620Z,18.66
2023-12-18T12:32:03.817Z,18.66
2023-12-18T12:34:38.246Z,18.65
2023-12-18T12:37:07.164Z,18.72
2023-12-18T12:39:35.094Z,18.71
2023-12-18T12:42:02.617Z,18.76
2023-12-18T12:44:30.153Z,18.73
2023-12-18T12:46:57.661Z,18.78
2023-12-18T12:49:25.247Z,18.86
2023-12-18T12:51:52.862Z,18.86
2023-12-18T12:54:22.608Z,18.86
2023-12-18T12:56:51.052Z,18.78
2023-12-18T12:59:19.061Z,18.83
2023-12-18T13:01:46.879Z,18.83
2023-12-18T13:04:14.587Z,18.80
2023-12-18T13:06:42.216Z,18.78
2023-12-18T13:09:10.393Z,18.72
2023-12-18T13:11:41.064Z,18.68
2023-12-18T13:14:14.594Z,18.71
2023-12-18T13:16:43.121Z,18.74
2023-12-18T13:19:10.794Z,18.74
2023-12-18T13:21:39.154Z,18.75
2023-12-18T13:24:07.258Z,18.85
2023-12-18T13:26:34.848Z,18.76
2023-12-18T13:29:03.713Z,18.66
2023-12-18T13:31:34.288Z,18.70
2023-12-18T13:34:02.018Z,18.73
2023-12-18T13:36:29.605Z,18.73
2023-12-18T13:38:57.357Z,18.69
2023-12-18T13:41:27.682Z,18.73
2023-12-18T13:43:55.145Z,18.85
2023-12-18T13:46:23.965Z,18.77
2023-12-18T13:48:50.648Z,18.77
2023-12-18T13:51:18.228Z,18.77
2023-12-18T13:53:45.810Z,18.87
2023-12-18T13:56:13.585Z,18.96
2023-12-18T13:58:41.426Z,18.93
2023-12-18T14:01:09.021Z,18.95
2023-12-18T14:03:38.035Z,18.98
2023-12-18T14:06:06.164Z,18.97
2023-12-18T14:08:33.648Z,18.97
2023-12-18T14:11:02.159Z,18.94
2023-12-18T14:13:29.669Z,18.90
2023-12-18T14:15:58.311Z,18.95
2023-12-18T14:18:26.029Z,18.94
2023-12-18T14:20:54.998Z,18.92
2023-12-18T14:23:22.475Z,18.89
2023-12-18T14:25:49.986Z,18.96
2023-12-18T14:28:17.623Z,18.95
2023-12-18T14:30:45.295Z,18.87
2023-12-18T14:33:13.188Z,18.89
2023-12-18T14:35:41.008Z,18.94
2023-12-18T14:38:09.839Z,19.01
2023-12-18T14:40:37.326Z,18.98
2023-12-18T14:43:05.232Z,18.90
2023-12-18T14:45:32.942Z,18.92
2023-12-18T14:48:00.532Z,18.90
2023-12-18T14:50:28.152Z,18.83
2023-12-18T14:52:57.239Z,18.86
2023-12-18T14:55:27.511Z,18.86
2023-12-18T14:57:56.161Z,18.87
2023-12-18T15:00:23.748Z,18.82
2023-12-18T15:02:51.311Z,18.82
2023-12-18T15:05:18.878Z,18.86
2023-12-18T15:07:46.408Z,18.88
2023-12-18T15:10:14.810Z,18.83
2023-12-18T15:12:43.879Z,18.78
2023-12-18T15:15:12.923Z,18.79
2023-12-18T15:17:40.516Z,18.86
2023-12-18T15:20:09.909Z,18.85
2023-12-18T15:22:37.572Z,18.82
2023-12-18T15:25:05.910Z,18.81
2023-12-18T15:27:34.513Z,18.79
2023-12-18T15:30:03.812Z,18.90
2023-12-18T15:32:31.414Z,18.94
2023-12-18T15:34:59.063Z,18.81
2023-12-18T15:37:26.695Z,18.78
2023-12-18T15:39:54.331Z,18.75
2023-12-18T15:42:22.158Z,18.82
2023-12-18T15:44:50.656Z,18.83
2023-12-18T15:47:19.761Z,18.75
2023-12-18T15:49:47.620Z,18.69
2023-12-18T15:52:18.265Z,18.69
2023-12-18T15:54:45.849Z,18.71
2023-12-18T15:57:13.384Z,18.73
2023-12-18T15:59:40.898Z,18.74
2023-12-18T16:02:08.381Z,18.66
2023-12-18T16:04:37.221Z,18.74
2023-12-18T16:07:05.786Z,18.81
2023-12-18T16:09:33.314Z,18.73
2023-12-18T16:12:00.937Z,18.76
2023-12-18T16:14:28.425Z,18.71
2023-12-18T16:16:55.964Z,18.75
2023-12-18T16:19:23.685Z,18.71
2023-12-18T16:21:52.730Z,18.65
2023-12-18T16:24:20.387Z,18.71
2023-12-18T16:26:48.188Z,18.69
2023-12-18T16:29:15.877Z,18.73
2023-12-18T16:31:43.448Z,18.76
2023-12-18T16:34:11.494Z,18.75
2023-12-18T16:36:39.108Z,18.80
2023-12-18T16:39:07.972Z,18.66
2023-12-18T16:41:37.561Z,18.68
2023-12-18T16:44:05.351Z,18.70
2023-12-18T16:46:40.326Z,18.66
2023-12-18T16:49:13.221Z,18.58
2023-12-18T16:51:41.059Z,18.50
2023-12-18T16:54:09.988Z,18.53
2023-12-18T16:56:37.998Z,18.56
2023-12-18T16:59:05.759Z,18.64
2023-12-18T17:01:33.391Z,18.56
2023-12-18T17:04:01.309Z,18.70
2023-12-18T17:06:28.941Z,18.68
2023-12-18T17:08:58.596Z,18.76
2023-12-18T17:11:27.569Z,18.64
2023-12-18T17:13:55.031Z,18.69
2023-12-18T17:16:22.494Z,18.68
2023-12-18T17:18:50.029Z,18.63
2023-12-18T17:21:17.577Z,18.60
2023-12-18T17:23:45.766Z,18.60
2023-12-18T17:26:15.975Z,18.56
2023-12-18T17:28:45.009Z,18.54
2023-12-18T17:31:12.448Z,18.49
2023-12-18T17:33:40.958Z,18.46
2023-12-18T17:36:09.128Z,18.41
2023-12-18T17:38:36.685Z,18.38
2023-12-18T17:41:04.339Z,18.33
2023-12-18T17:43:31.893Z,18.25
2023-12-18T17:46:00.971Z,18.26
2023-12-18T17:48:28.591Z,18.24
2023-12-18T17:50:56.258Z,18.17
2023-12-18T17:53:23.802Z,18.19
2023-12-18T17:55:51.313Z,18.19
2023-12-18T17:58:18.763Z,18.11
2023-12-18T18:00:46.382Z,18.17
2023-12-18T18:03:15.424Z,18.23
2023-12-18T18:05:42.804Z,18.18
2023-12-18T18:08:10.334Z,18.19
2023-12-18T18:10:37.913Z,18.23
2023-12-18T18:13:05.411Z,18.25
2023-12-18T18:15:32.978Z,18.21
2023-12-18T18:18:00.934Z,18.13
2023-12-18T18:20:30.699Z,18.16
2023-12-18T18:22:58.283Z,18.00
2023-12-18T18:25:25.940Z,17.82
2023-12-18T18:27:53.541Z,17.95
2023-12-18T18:30:21.220Z,18.00
2023-12-18T18:32:48.967Z,17.98
2023-12-18T18:35:16.796Z,18.03
2023-12-18T18:37:46.238Z,18.08
2023-12-18T18:40:14.752Z,18.04
2023-12-18T18:42:42.268Z,18.03
2023-12-18T18:45:10.903Z,18.07
2023-12-18T18:47:38.434Z,18.07
2023-12-18T18:50:06.326Z,18.12
2023-12-18T18:52:33.911Z,18.18
2023-12-18T18:55:03.345Z,18.14
2023-12-18T18:57:30.933Z,18.20
2023-12-18T18:59:58.439Z,18.18
2023-12-18T19:02:26.143Z,18.26
2023-12-18T19:04:53.776Z,18.16
2023-12-18T19:07:21.380Z,18.12
2023-12-18T19:09:48.942Z,18.06
2023-12-18T19:12:17.838Z,18.13
2023-12-18T19:14:45.400Z,18.23
2023-12-18T19:17:12.906Z,18.15
2023-12-18T19:19:41.070Z,18.14
2023-12-18T19:22:08.619Z,18.16
2023-12-18T19:24:36.203Z,18.14
2023-12-18T19:27:03.793Z,18.21
2023-12-18T19:29:32.627Z,18.14
2023-12-18T19:32:00.990Z,18.16
2023-12-18T19:34:28.689Z,18.17
2023-12-18T19:36:56.419Z,18.16
2023-12-18T19:39:24.040Z,18.17
2023-12-18T19:41:51.558Z,18.25
2023-12-18T19:44:20.434Z,18.30
2023-12-18T19:46:50.573Z,18.28
2023-12-18T19:49:21.714Z,18.30
2023-12-18T19:51:49.846Z,18.26
2023-12-18T19:54:17.464Z,18.24
2023-12-18T19:56:44.972Z,18.25
2023-12-18T19:59:12.502Z,18.27
2023-12-18T20:01:40.062Z,18.31
2023-12-18T20:04:10.950Z,18.32
2023-12-18T20:06:38.563Z,18.31
2023-12-18T20:09:06.146Z,18.28
2023-12-18T20:11:33.676Z,18.30
2023-12-18T20:14:01.227Z,18.35
2023-12-18T20:16:29.068Z,18.40
2023-12-18T20:18:56.686Z,18.41
2023-12-18T20:21:25.764Z,18.37
2023-12-18T20:23:53.281Z,18.34
2023-12-18T20:26:20.773Z,18.40
2023-12-18T20:28:48.285Z,18.34
2023-12-18T20:31:15.847Z,18.35
2023-12-18T20:33:43.640Z,18.34
2023-12-18T20:36:11.283Z,18.34
2023-12-18T20:38:40.196Z,18.44
2023-12-18T20:41:07.719Z,18.42
2023-12-18T20:43:35.226Z,18.36
2023-12-18T20:46:02.797Z,18.37
2023-12-18T20:48:30.487Z,18.37
2023-12-18T20:50:59.986Z,18.41
2023-12-18T20:53:27.477Z,18.45
2023-12-18T20:55:56.961Z,18.40
2023-12-18T20:58:25.201Z,18.42
2023-12-18T21:00:52.792Z,18.40
2023-12-18T21:03:20.448Z,18.42
2023-12-18T21:05:48.000Z,18.40
2023-12-18T21:08:15.510Z,18.45
2023-12-18T21:10:43.140Z,18.41
2023-12-18T21:13:16.515Z,18.53
2023-12-18T21:15:46.633Z,18.56
2023-12-18T21:18:14.642Z,18.45
2023-12-18T21:20:42.144Z,18.38
2023-12-18T21:23:09.723Z,18.41
2023-12-18T21:25:37.361Z,18.41
2023-12-18T21:28:05.449Z,18.42
2023-12-18T21:30:34.372Z,18.40
2023-12-18T21:33:03.317Z,18.44
2023-12-18T21:35:31.029Z,18.51
2023-12-18T21:37:58.542Z,18.56
2023-12-18T21:40:26.016Z,18.56
2023-12-18T21:42:53.553Z,18.57
2023-12-18T21:45:21.210Z,18.49
2023-12-18T21:47:51.427Z,18.41
2023-12-18T21:50:19.074Z,18.32
2023-12-18T21:52:46.618Z,18.24
2023-12-18T21:55:14.171Z,18.16
2023-12-18T21:57:41.704Z,18.09
2023-12-18T22:00:10.046Z,17.97
2023-12-18T22:02:37.576Z,17.89
2023-12-18T22:05:07.313Z,17.78
2023-12-18T22:07:34.857Z,17.70
2023-12-18T22:10:04.410Z,17.64
2023-12-18T22:12:32.052Z,17.56
2023-12-18T22:15:01.913Z,17.51
2023-12-18T22:17:30.974Z,17.48
2023-12-18T22:19:58.709Z,17.43
2023-12-18T22:22:27.601Z,17.41
2023-12-18T22:24:55.149Z,17.43
2023-12-18T22:27:22.803Z,17.44
2023-12-18T22:29:50.319Z,17.43
2023-12-18T22:32:17.826Z,17.41
2023-12-18T22:34:45.423Z,17.37
2023-12-18T22:37:13.510Z,17.37
2023-12-18T22:39:43.008Z,17.37
2023-12-18T22:42:10.571Z,17.37
2023-12-18T22:44:38.114Z,17.35
2023-12-18T22:47:05.724Z,17.35
2023-12-18T22:49:33.729Z,17.33
2023-12-18T22:52:01.439Z,17.32
2023-12-18T22:54:29.071Z,17.28
2023-12-18T22:56:57.928Z,17.27
2023-12-18T22:59:25.410Z,17.25
2023-12-18T23:01:52.968Z,17.25
2023-12-18T23:04:20.608Z,17.25
2023-12-18T23:06:49.869Z,17.29
2023-12-18T23:09:17.238Z,17.32
2023-12-18T23:11:44.766Z,17.31
2023-12-18T23:14:14.103Z,17.29
2023-12-18T23:16:41.866Z,17.28
2023-12-18T23:19:09.418Z,17.25
2023-12-18T23:21:40.223Z,17.23
2023-12-18T23:24:08.450Z,17.22
2023-12-18T23:26:36.039Z,17.20
2023-12-18T23:29:03.608Z,17.17
2023-12-18T23:31:32.566Z,17.17
2023-12-18T23:34:00.508Z,17.14
2023-12-18T23:36:28.196Z,17.11
2023-12-18T23:38:55.699Z,17.12
2023-12-18T23:41:23.209Z,17.13
2023-12-18T23:43:51.732Z,17.24
2023-12-18T23:46:19.454Z,17.31
2023-12-18T23:48:48.387Z,17.33
2023-12-18T23:51:15.898Z,17.32
2023-12-18T23:53:43.441Z,17.30
2023-12-18T23:56:11.097Z,17.30
2023-12-18T23:58:38.569Z,17.29
